Time;durP1;ratioP1;P1;durP2;ratioP2;P2;SDS_P1;SDS_P2;PMS_P1;PMS_P2;Temp;Humidity;BMP_temperature;BMP_pressure;BME280_temperature;BME280_humidity;BME280_pressure;Samples;Min_cycle;Max_cycle;Signal;HPM_P1;HPM_P2
2020/12/19 00:00:59;;;;;;;7.15;5.43;;;;;;;19.06;53.01;101351.00;4786239;29;20047;-71
2020/12/19 00:03:24;;;;;;;9.90;6.38;;;;;;;19.04;53.23;101339.66;4798264;29;20042;-71
2020/12/19 00:05:50;;;;;;;9.13;6.00;;;;;;;19.05;53.47;101341.41;4798215;29;20592;-71
2020/12/19 00:08:15;;;;;;;10.20;6.82;;;;;;;18.99;53.00;101329.16;4789017;29;20060;-71
2020/12/19 00:10:40;;;;;;;8.70;6.13;;;;;;;19.01;53.08;101344.88;4804124;29;20034;-71
2020/12/19 00:13:06;;;;;;;10.43;6.15;;;;;;;18.92;53.26;101327.41;4776953;29;20034;-71
2020/12/19 00:15:31;;;;;;;7.13;5.40;;;;;;;18.91;53.35;101326.53;4805524;29;20088;-71
2020/12/19 00:17:56;;;;;;;9.35;6.60;;;;;;;18.89;53.25;101325.66;4800928;29;20820;-71
2020/12/19 00:20:22;;;;;;;8.65;5.25;;;;;;;18.87;53.55;101337.88;4805159;29;20099;-71
2020/12/19 00:22:47;;;;;;;8.35;6.03;;;;;;;18.86;53.38;101333.50;4802821;29;20034;-71
2020/12/19 00:25:13;;;;;;;7.15;5.65;;;;;;;18.86;53.47;101330.00;4782131;29;20468;-71
2020/12/19 00:27:38;;;;;;;7.80;5.28;;;;;;;18.82;53.55;101321.28;4801822;29;20031;-71
2020/12/19 00:30:05;;;;;;;10.35;4.88;;;;;;;18.80;53.45;101320.41;4798389;29;20054;-72
2020/12/19 00:32:30;;;;;;;9.90;5.55;;;;;;;18.80;53.44;101319.53;4819585;29;20425;-71
2020/12/19 00:34:56;;;;;;;7.50;5.68;;;;;;;18.80;53.43;101327.41;4801569;29;20042;-71
2020/12/19 00:37:23;;;;;;;7.32;4.97;;;;;;;18.79;53.50;101323.03;4800164;29;20033;-71
2020/12/19 00:39:48;;;;;;;5.53;4.90;;;;;;;18.78;53.32;101311.66;4802081;29;20110;-71
2020/12/19 00:42:13;;;;;;;6.35;5.10;;;;;;;18.78;53.34;101316.03;4788171;29;20126;-71
2020/12/19 00:44:39;;;;;;;8.68;5.03;;;;;;;18.76;53.36;101312.53;4800195;29;20031;-71
2020/12/19 00:47:04;;;;;;;6.25;4.22;;;;;;;18.76;53.47;101310.78;4801368;29;20043;-71
2020/12/19 00:49:29;;;;;;;5.05;4.22;;;;;;;18.76;53.38;101315.16;4801374;29;20038;-72
2020/12/19 00:51:55;;;;;;;5.80;4.20;;;;;;;18.73;53.42;101308.16;4802256;29;20043;-71
2020/12/19 00:54:20;;;;;;;6.18;4.25;;;;;;;18.72;53.35;101300.28;4800479;29;20055;-71
2020/12/19 00:56:46;;;;;;;5.20;4.22;;;;;;;18.74;53.36;101309.91;4791093;29;20049;-71
2020/12/19 00:59:11;;;;;;;7.28;4.97;;;;;;;18.74;53.57;101307.28;4796774;29;20118;-71
2020/12/19 01:01:36;;;;;;;6.82;4.97;;;;;;;18.72;53.55;101295.94;4799874;29;20035;-71
2020/12/19 01:04:02;;;;;;;7.03;4.88;;;;;;;18.72;53.49;101295.94;4791171;29;20047;-71
2020/12/19 01:06:28;;;;;;;5.85;4.43;;;;;;;18.72;53.29;101292.44;4805655;29;20103;-72
2020/12/19 01:08:56;;;;;;;7.10;4.50;;;;;;;18.69;53.43;101295.94;4802065;29;20035;-71
2020/12/19 01:11:25;;;;;;;8.00;5.18;;;;;;;18.71;53.49;101290.69;4798998;29;20039;-71
2020/12/19 01:13:51;;;;;;;6.25;4.90;;;;;;;18.71;53.57;101301.16;4800779;29;20117;-72
2020/12/19 01:16:21;;;;;;;5.95;4.07;;;;;;;18.70;53.43;101304.66;4806479;29;20107;-71
2020/12/19 01:18:49;;;;;;;5.22;4.40;;;;;;;18.65;53.57;101301.16;4804163;29;20023;-71
2020/12/19 01:21:16;;;;;;;5.35;4.05;;;;;;;18.68;53.57;101311.66;4807202;29;20027;-71
2020/12/19 01:23:42;;;;;;;5.43;3.90;;;;;;;18.64;53.47;101297.69;4807216;29;20507;-71
2020/12/19 01:26:07;;;;;;;7.07;4.00;;;;;;;18.64;53.63;101289.81;4805691;29;20074;-71
2020/12/19 01:28:33;;;;;;;4.50;3.95;;;;;;;18.65;53.21;101296.81;4808201;29;20035;-71
2020/12/19 01:31:03;;;;;;;4.68;4.05;;;;;;;18.62;53.54;101302.03;4810153;29;20042;-71
2020/12/19 01:33:29;;;;;;;4.65;3.88;;;;;;;18.64;53.54;101296.78;4797269;29;20440;-72
2020/12/19 01:35:55;;;;;;;5.50;3.90;;;;;;;18.63;53.59;101295.91;4812826;29;20031;-72
2020/12/19 01:38:20;;;;;;;6.43;3.63;;;;;;;18.64;53.36;101295.06;4791460;30;20043;-71
2020/12/19 01:40:50;;;;;;;4.10;3.08;;;;;;;18.65;53.49;101295.94;4806198;29;20076;-71
2020/12/19 01:43:16;;;;;;;4.85;3.38;;;;;;;18.63;53.43;101301.16;4806901;29;20391;-71
2020/12/19 01:45:41;;;;;;;5.70;3.95;;;;;;;18.59;53.34;101294.16;4808129;29;20043;-71
2020/12/19 01:48:15;;;;;;;4.55;3.13;;;;;;;18.63;53.49;101297.66;4790524;29;20046;-72
2020/12/19 01:50:41;;;;;;;6.13;3.63;;;;;;;18.61;53.22;101292.44;4801948;29;20411;-71
2020/12/19 01:53:06;;;;;;;5.60;4.28;;;;;;;18.62;53.38;101290.69;4808502;29;20076;-71
2020/12/19 01:55:32;;;;;;;6.07;3.50;;;;;;;18.61;53.52;101291.56;4795392;29;20035;-71
2020/12/19 01:57:58;;;;;;;5.20;3.90;;;;;;;18.60;53.36;101292.41;4808644;29;20034;-72
2020/12/19 02:00:23;;;;;;;5.78;3.38;;;;;;;18.61;53.42;101297.66;4807768;29;20038;-72
2020/12/19 02:02:49;;;;;;;4.03;3.30;;;;;;;18.60;53.38;101287.19;4800795;29;20659;-72
2020/12/19 02:05:14;;;;;;;3.63;3.05;;;;;;;18.59;53.20;101278.44;4805902;29;20398;-72
2020/12/19 02:07:39;;;;;;;4.80;3.85;;;;;;;18.55;53.29;101277.56;4805245;29;20031;-72
2020/12/19 02:10:05;;;;;;;4.68;3.63;;;;;;;18.54;53.55;101269.69;4805359;29;20491;-72
2020/12/19 02:12:30;;;;;;;5.18;3.17;;;;;;;18.52;53.58;101274.91;4775391;29;20552;-72
2020/12/19 02:14:58;;;;;;;5.00;3.63;;;;;;;18.50;53.34;101271.44;4799083;29;20548;-71
2020/12/19 02:17:24;;;;;;;5.70;4.70;;;;;;;18.54;53.51;101272.31;4817069;29;20039;-72
2020/12/19 02:19:49;;;;;;;5.18;3.13;;;;;;;18.54;53.31;101269.69;4789750;29;20034;-72
2020/12/19 02:22:14;;;;;;;4.20;3.42;;;;;;;18.54;53.33;101272.31;4803902;29;20062;-72
2020/12/19 02:24:40;;;;;;;4.40;3.22;;;;;;;18.54;53.44;101267.94;4805501;29;20398;-72
2020/12/19 02:27:05;;;;;;;4.60;3.40;;;;;;;18.55;53.31;101276.69;4804376;29;20062;-72
2020/12/19 02:29:32;;;;;;;4.82;3.63;;;;;;;18.52;53.45;101268.81;4794046;29;20031;-72
2020/12/19 02:31:59;;;;;;;4.45;3.15;;;;;;;18.49;53.07;101256.56;4805061;29;20035;-72
2020/12/19 02:34:24;;;;;;;4.18;3.33;;;;;;;18.51;53.49;101257.47;4804594;29;20041;-72
2020/12/19 02:36:50;;;;;;;4.03;3.10;;;;;;;18.44;53.24;101245.22;4820744;29;20117;-72
2020/12/19 02:39:15;;;;;;;4.30;3.10;;;;;;;18.51;53.63;101256.59;4790872;29;20037;-72
2020/12/19 02:41:45;;;;;;;3.17;2.50;;;;;;;18.51;53.70;101254.84;4799926;29;20039;-72
2020/12/19 02:44:14;;;;;;;3.80;2.90;;;;;;;18.51;53.40;101253.97;4803563;29;20035;-72
2020/12/19 02:46:39;;;;;;;4.03;3.40;;;;;;;18.51;53.51;101243.50;4806233;29;20031;-72
2020/12/19 02:49:06;;;;;;;4.50;3.28;;;;;;;18.49;53.50;101246.09;4805796;29;20113;-72
2020/12/19 02:51:31;;;;;;;3.63;2.55;;;;;;;18.50;53.40;101246.97;4806166;29;20066;-72
2020/12/19 02:53:57;;;;;;;4.75;3.30;;;;;;;18.50;53.29;101241.75;4806293;29;20038;-72
2020/12/19 02:56:22;;;;;;;3.55;3.20;;;;;;;18.46;53.35;101234.75;4807621;29;20122;-72
2020/12/19 02:58:47;;;;;;;5.18;3.83;;;;;;;18.49;53.31;101232.13;4804477;29;20023;-72
2020/12/19 03:01:13;;;;;;;4.45;3.45;;;;;;;18.49;53.31;101235.63;4787292;29;20074;-72
2020/12/19 03:03:38;;;;;;;4.25;3.03;;;;;;;18.45;53.31;101223.38;4794541;29;20122;-72
2020/12/19 03:06:04;;;;;;;4.22;2.85;;;;;;;18.49;53.30;101224.28;4799886;29;20043;-72
2020/12/19 03:08:29;;;;;;;3.70;2.85;;;;;;;18.47;53.18;101229.50;4806442;29;20120;-72
2020/12/19 03:10:54;;;;;;;4.72;2.83;;;;;;;18.46;52.87;101224.25;4800451;29;20045;-72
2020/12/19 03:13:20;;;;;;;5.03;3.40;;;;;;;18.45;53.22;101217.28;4803720;29;20099;-72
2020/12/19 03:15:45;;;;;;;3.90;2.75;;;;;;;18.43;53.45;101217.31;4824647;29;20030;-71
2020/12/19 03:18:11;;;;;;;5.32;3.08;;;;;;;18.44;53.20;101216.41;4803548;29;20043;-71
2020/12/19 03:20:36;;;;;;;4.43;2.83;;;;;;;18.46;53.09;101221.66;4786625;29;20031;-71
2020/12/19 03:23:01;;;;;;;3.17;2.53;;;;;;;18.46;53.30;101216.41;4818547;29;20043;-71
2020/12/19 03:25:27;;;;;;;3.97;2.75;;;;;;;18.43;53.37;101205.97;4807176;29;20043;-71
2020/12/19 03:27:53;;;;;;;3.78;2.92;;;;;;;18.40;53.29;101206.81;4799316;29;20027;-71
2020/12/19 03:30:19;;;;;;;3.97;2.90;;;;;;;18.44;53.07;101210.28;4806462;29;20060;-71
2020/12/19 03:32:45;;;;;;;4.03;2.55;;;;;;;18.45;53.16;101201.56;4808694;29;20039;-71
2020/12/19 03:35:10;;;;;;;6.80;2.85;;;;;;;18.44;53.45;101194.56;4806651;29;20058;-71
2020/12/19 03:37:35;;;;;;;3.53;2.50;;;;;;;18.41;53.29;101199.84;4797145;29;20046;-71
2020/12/19 03:40:02;;;;;;;3.17;2.63;;;;;;;18.38;53.38;101190.22;4780796;29;20556;-71
2020/12/19 03:42:27;;;;;;;3.72;2.55;;;;;;;18.39;53.15;101191.97;4803956;29;20038;-71
2020/12/19 03:44:53;;;;;;;3.55;2.95;;;;;;;18.43;53.39;101198.09;4801696;29;20091;-71
2020/12/19 03:47:18;;;;;;;3.75;2.50;;;;;;;18.41;53.07;101197.22;4804494;29;20103;-71
2020/12/19 03:49:43;;;;;;;4.93;2.75;;;;;;;18.39;53.14;101188.50;4804783;29;20047;-71
2020/12/19 03:52:08;;;;;;;4.50;2.95;;;;;;;18.38;53.22;101187.63;4803976;29;20122;-71
2020/12/19 03:54:34;;;;;;;3.63;2.65;;;;;;;18.41;53.13;101189.38;4795661;29;20030;-72
2020/12/19 03:57:00;;;;;;;3.50;2.60;;;;;;;18.37;53.22;101178.00;4802781;29;20038;-72
2020/12/19 03:59:25;;;;;;;3.20;2.60;;;;;;;18.37;52.95;101182.38;4799119;29;20038;-71
2020/12/19 04:01:50;;;;;;;4.30;2.78;;;;;;;18.38;53.07;101177.13;4802826;29;20030;-72
2020/12/19 04:04:16;;;;;;;3.53;2.47;;;;;;;18.39;53.10;101168.41;4801109;29;20046;-71
2020/12/19 04:06:41;;;;;;;5.05;3.10;;;;;;;18.37;53.01;101161.44;4795435;29;20083;-71
2020/12/19 04:09:06;;;;;;;2.90;2.20;;;;;;;18.36;53.04;101170.16;4802738;29;20066;-71
2020/12/19 04:11:32;;;;;;;3.72;2.63;;;;;;;18.34;53.17;101167.53;4816404;29;20043;-71
2020/12/19 04:13:57;;;;;;;4.20;2.80;;;;;;;18.37;53.59;101161.44;4800250;29;20058;-71
2020/12/19 04:16:22;;;;;;;3.30;2.38;;;;;;;18.36;53.46;101163.16;4789981;29;20390;-72
2020/12/19 04:18:48;;;;;;;3.58;2.78;;;;;;;18.37;52.94;101156.19;4800158;29;20039;-72
2020/12/19 04:21:13;;;;;;;3.45;2.22;;;;;;;18.35;53.08;101153.56;4788690;29;20039;-72
2020/12/19 04:23:38;;;;;;;3.28;2.17;;;;;;;18.38;53.07;101155.31;4804357;29;20451;-72
2020/12/19 04:26:04;;;;;;;3.10;2.35;;;;;;;18.38;52.85;101152.69;4817774;29;20434;-72
2020/12/19 04:28:30;;;;;;;3.35;2.38;;;;;;;18.38;52.98;101145.72;4787399;29;20041;-72
2020/12/19 04:30:55;;;;;;;4.13;2.60;;;;;;;18.33;52.75;101134.34;4803975;29;20509;-72
2020/12/19 04:33:22;;;;;;;2.78;2.20;;;;;;;18.37;52.92;101143.09;4803144;29;20405;-72
2020/12/19 04:35:47;;;;;;;2.83;2.13;;;;;;;18.34;52.83;101143.09;4799899;29;20069;-72
2020/12/19 04:38:12;;;;;;;3.65;2.50;;;;;;;18.36;52.87;101141.34;4803369;29;20072;-71
2020/12/19 04:40:38;;;;;;;3.53;2.60;;;;;;;18.32;52.74;101119.53;4805029;29;20539;-72
2020/12/19 04:43:14;;;;;;;4.68;2.88;;;;;;;18.33;53.18;101131.75;4805913;29;20038;-71
2020/12/19 04:45:41;;;;;;;2.63;2.20;;;;;;;18.33;52.95;101128.25;4805011;29;20110;-72
2020/12/19 04:48:07;;;;;;;2.75;1.92;;;;;;;18.30;52.80;101131.75;4805493;29;20540;-72
2020/12/19 04:50:32;;;;;;;2.92;2.50;;;;;;;18.32;52.95;101126.50;4787567;29;20054;-72
2020/12/19 04:52:58;;;;;;;3.25;2.17;;;;;;;18.34;52.95;101119.53;4799204;29;20043;-72
2020/12/19 04:55:23;;;;;;;5.22;2.78;;;;;;;18.30;52.99;101104.72;4816793;29;20070;-72
2020/12/19 04:57:51;;;;;;;3.35;2.35;;;;;;;18.31;52.82;101116.91;4788087;29;20035;-72
2020/12/19 05:00:16;;;;;;;4.10;2.80;;;;;;;18.32;53.10;101116.91;4807515;29;20049;-72
2020/12/19 05:02:41;;;;;;;3.15;2.20;;;;;;;18.32;52.75;101110.78;4801910;29;20043;-72
2020/12/19 05:05:07;;;;;;;4.20;2.50;;;;;;;18.33;52.72;101109.91;4803798;29;20121;-72
2020/12/19 05:07:32;;;;;;;2.67;2.33;;;;;;;18.30;52.99;101110.81;4804776;29;20038;-72
2020/12/19 05:09:58;;;;;;;2.67;2.30;;;;;;;18.29;52.93;101105.56;4783760;29;20387;-72
2020/12/19 05:12:25;;;;;;;3.05;2.35;;;;;;;18.28;53.04;101091.63;4802382;29;20043;-71
2020/12/19 05:14:50;;;;;;;3.20;2.47;;;;;;;18.31;52.79;101106.44;4800695;29;20045;-72
2020/12/19 05:17:16;;;;;;;3.83;2.83;;;;;;;18.30;52.85;101095.13;4803334;29;20125;-72
2020/12/19 05:19:41;;;;;;;2.72;2.15;;;;;;;18.26;52.86;101085.50;4803735;29;20113;-71
2020/12/19 05:22:06;;;;;;;3.00;2.28;;;;;;;18.28;52.67;101081.16;4817516;29;20034;-71
2020/12/19 05:24:37;;;;;;;4.35;2.42;;;;;;;18.25;52.88;101078.53;4779242;29;20113;-72
2020/12/19 05:27:04;;;;;;;4.15;3.00;;;;;;;18.30;52.73;101087.25;4785930;29;20526;-72
2020/12/19 05:29:31;;;;;;;2.80;2.20;;;;;;;18.26;52.72;101079.41;4803446;29;20119;-72
2020/12/19 05:31:58;;;;;;;3.03;2.35;;;;;;;18.30;52.61;101083.75;4804036;29;20038;-72
2020/12/19 05:34:25;;;;;;;3.40;2.42;;;;;;;18.30;52.39;101082.03;4798169;29;20034;-72
2020/12/19 05:36:52;;;;;;;3.00;2.13;;;;;;;18.29;52.66;101084.63;4784222;29;20036;-71
2020/12/19 05:39:18;;;;;;;2.25;1.85;;;;;;;18.28;52.73;101085.50;4803703;29;20027;-72
2020/12/19 05:41:45;;;;;;;3.60;2.60;;;;;;;18.27;52.59;101079.41;4802606;29;20046;-71
2020/12/19 05:44:11;;;;;;;3.00;2.03;;;;;;;18.26;52.56;101071.53;4802427;29;20467;-72
2020/12/19 05:46:41;;;;;;;3.42;2.83;;;;;;;18.28;52.68;101078.53;4799229;29;20042;-71
2020/12/19 05:49:08;;;;;;;2.88;2.10;;;;;;;18.25;52.63;101059.31;4802600;29;20110;-72
2020/12/19 05:51:38;;;;;;;2.72;1.90;;;;;;;18.27;52.62;101066.31;4801360;29;20383;-71
2020/12/19 05:54:15;;;;;;;2.70;2.00;;;;;;;18.27;52.66;101065.44;4815009;29;20402;-71
2020/12/19 05:56:41;;;;;;;2.28;1.60;;;;;;;18.26;52.68;101061.06;4802691;29;20030;-72
2020/12/19 05:59:14;;;;;;;2.63;1.88;;;;;;;18.24;52.70;101054.97;4799908;29;20103;-72
2020/12/19 06:01:44;;;;;;;2.60;1.88;;;;;;;18.26;52.58;101053.22;4802198;29;20099;-72
2020/12/19 06:04:12;;;;;;;4.15;2.92;;;;;;;18.27;52.67;101054.97;4804288;29;20096;-72
2020/12/19 06:06:44;;;;;;;3.30;2.38;;;;;;;18.26;52.60;101054.09;4803141;29;20122;-71
2020/12/19 06:09:11;;;;;;;3.70;2.75;;;;;;;18.23;52.58;101051.47;4807038;29;20490;-71
2020/12/19 06:11:48;;;;;;;2.53;1.92;;;;;;;18.23;52.72;101056.69;4805079;29;20039;-72
2020/12/19 06:14:18;;;;;;;3.20;2.20;;;;;;;18.23;52.64;101045.34;4814201;29;20042;-72
2020/12/19 06:16:45;;;;;;;3.20;2.90;;;;;;;18.23;52.48;101042.75;4804674;29;20035;-72
2020/12/19 06:19:18;;;;;;;3.78;2.83;;;;;;;18.23;52.34;101040.13;4805702;29;20093;-72
2020/12/19 06:21:51;;;;;;;1.98;1.63;;;;;;;18.23;52.42;101038.38;4804600;29;20039;-71
2020/12/19 06:24:38;;;;;;;2.00;1.60;;;;;;;18.25;52.38;101035.75;4806214;29;20031;-71
2020/12/19 06:27:08;;;;;;;2.28;1.73;;;;;;;18.21;52.57;101038.38;4803017;29;20050;-71
2020/12/19 06:29:35;;;;;;;2.42;1.98;;;;;;;18.22;52.53;101034.00;4809044;29;20038;-71
2020/12/19 06:32:01;;;;;;;2.70;2.22;;;;;;;18.23;52.64;101032.28;4801754;29;20460;-71
2020/12/19 06:34:26;;;;;;;2.70;2.20;;;;;;;18.24;52.67;101031.41;4802038;29;20114;-71
2020/12/19 06:36:56;;;;;;;2.67;1.95;;;;;;;18.24;52.57;101036.63;4806234;29;20490;-71
2020/12/19 06:39:22;;;;;;;2.83;2.00;;;;;;;18.21;52.41;101038.38;4804101;29;20437;-71
2020/12/19 06:42:01;;;;;;;2.88;2.28;;;;;;;18.21;52.44;101020.06;4806473;29;20037;-71
2020/12/19 06:44:31;;;;;;;2.40;1.90;;;;;;;18.22;52.50;101026.16;4820134;29;20050;-71
2020/12/19 06:47:01;;;;;;;3.28;2.40;;;;;;;18.23;52.79;101032.28;4800631;29;22227;-70
2020/12/19 06:49:35;;;;;;;3.10;2.03;;;;;;;18.21;52.63;101024.41;4807102;29;22254;-72
2020/12/19 06:52:09;;;;;;;1.92;1.58;;;;;;;18.24;52.53;101026.16;4802916;29;20794;-70
2020/12/19 06:54:35;;;;;;;4.57;1.73;;;;;;;18.20;52.76;101027.91;4800072;29;20557;-71
2020/12/19 06:57:02;;;;;;;3.25;2.13;;;;;;;18.23;52.67;101016.56;4797290;29;20043;-72
2020/12/19 06:59:29;;;;;;;3.08;1.90;;;;;;;18.26;52.36;101022.69;4800149;29;20046;-71
2020/12/19 07:02:17;;;;;;;3.70;1.83;;;;;;;18.27;52.33;101028.78;4801480;29;20038;-71
2020/12/19 07:04:43;;;;;;;3.65;2.40;;;;;;;18.25;52.40;101028.78;4801630;29;20083;-71
2020/12/19 07:07:11;;;;;;;3.80;2.08;;;;;;;18.27;52.58;101026.16;4800124;29;20046;-71
2020/12/19 07:09:37;;;;;;;3.33;2.15;;;;;;;18.24;52.58;101019.19;4802756;29;20038;-71
2020/12/19 07:12:03;;;;;;;2.30;1.70;;;;;;;18.24;52.69;101018.31;4815545;29;20039;-71
2020/12/19 07:14:55;;;;;;;2.58;2.25;;;;;;;18.25;52.68;101015.69;4783708;29;20038;-71
2020/12/19 07:17:20;;;;;;;4.05;1.90;;;;;;;18.24;52.82;101007.84;4801216;29;20050;-71
2020/12/19 07:19:46;;;;;;;3.30;2.42;;;;;;;18.26;52.42;101013.94;4801676;29;20056;-71
2020/12/19 07:22:12;;;;;;;3.15;2.55;;;;;;;18.25;52.71;101020.06;4799630;29;20216;-71
2020/12/19 07:24:38;;;;;;;3.35;2.47;;;;;;;18.25;52.62;101018.31;4805253;29;20558;-72
2020/12/19 07:27:04;;;;;;;3.13;1.95;;;;;;;18.22;52.44;101015.69;4804843;29;20030;-71
2020/12/19 07:29:29;;;;;;;2.92;2.47;;;;;;;18.20;52.44;101018.31;4786134;29;20152;-71
2020/12/19 07:31:59;;;;;;;2.47;1.90;;;;;;;18.21;52.68;101033.13;4799797;29;20038;-72
2020/12/19 07:34:25;;;;;;;3.28;2.35;;;;;;;18.23;52.72;101035.75;4798821;29;20414;-71
2020/12/19 07:36:52;;;;;;;3.35;2.75;;;;;;;18.20;52.77;101031.41;4802725;29;20034;-71
2020/12/19 07:39:19;;;;;;;3.03;2.00;;;;;;;18.22;52.64;101036.63;4806049;29;20038;-71
2020/12/19 07:41:59;;;;;;;2.25;1.83;;;;;;;18.24;52.64;101036.63;4803527;29;20031;-71
2020/12/19 07:44:25;;;;;;;3.35;1.90;;;;;;;18.25;52.74;101041.00;4805382;29;20394;-71
2020/12/19 07:46:56;;;;;;;3.00;2.35;;;;;;;18.24;52.60;101032.28;4804111;29;20039;-71
2020/12/19 07:49:25;;;;;;;3.55;2.70;;;;;;;18.24;52.70;101034.88;4804632;29;20486;-71
2020/12/19 07:52:12;;;;;;;2.70;2.30;;;;;;;18.20;52.76;101033.13;4795457;29;20071;-71
2020/12/19 07:54:38;;;;;;;2.85;2.13;;;;;;;18.22;52.52;101026.16;4799340;29;20172;-73
2020/12/19 07:57:04;;;;;;;3.75;2.00;;;;;;;18.24;52.46;101027.03;4799993;29;20106;-72
2020/12/19 07:59:31;;;;;;;2.70;2.20;;;;;;;18.23;52.82;101030.53;4801134;29;20035;-72
2020/12/19 08:02:00;;;;;;;3.25;2.33;;;;;;;18.20;52.53;101027.91;4803399;29;20042;-72
2020/12/19 08:04:26;;;;;;;3.53;2.60;;;;;;;18.14;52.55;101010.47;4814062;29;20038;-72
2020/12/19 08:06:51;;;;;;;2.40;1.67;;;;;;;18.21;52.73;101013.94;4779586;29;20083;-72
2020/12/19 08:09:18;;;;;;;2.35;1.95;;;;;;;18.23;52.83;101017.44;4786226;29;20138;-72
2020/12/19 08:11:45;;;;;;;2.53;2.25;;;;;;;18.22;52.89;101007.84;4804598;29;20043;-72
2020/12/19 08:14:10;;;;;;;3.13;2.42;;;;;;;18.23;52.50;101017.44;4803848;29;20038;-72
2020/12/19 08:16:37;;;;;;;3.08;2.33;;;;;;;18.23;52.63;101017.44;4813181;29;20037;-72
2020/12/19 08:19:04;;;;;;;2.75;2.15;;;;;;;18.18;52.65;100999.09;4805231;29;20038;-72
2020/12/19 08:21:31;;;;;;;3.20;2.53;;;;;;;18.22;52.59;101015.69;4801395;29;20030;-72
2020/12/19 08:23:56;;;;;;;3.53;2.30;;;;;;;18.22;52.48;101013.06;4801759;29;20107;-72
2020/12/19 08:26:22;;;;;;;4.35;2.17;;;;;;;18.18;52.55;101014.81;4785285;29;20109;-72
2020/12/19 08:29:03;;;;;;;3.00;2.10;;;;;;;18.21;52.53;101032.25;4797834;29;20517;-72
2020/12/19 08:31:29;;;;;;;3.20;2.40;;;;;;;18.23;52.69;101029.66;4787723;29;20095;-72
2020/12/19 08:33:56;;;;;;;3.15;2.63;;;;;;;18.16;52.55;101015.72;4804655;29;20039;-72
2020/12/19 08:36:22;;;;;;;3.45;2.60;;;;;;;18.16;52.38;101005.25;4784104;29;20035;-72
2020/12/19 08:38:48;;;;;;;3.50;2.65;;;;;;;18.18;52.87;101011.31;4798187;29;20492;-73
2020/12/19 08:41:20;;;;;;;3.22;2.38;;;;;;;18.21;52.62;101006.09;4783951;29;20402;-71
2020/12/19 08:43:46;;;;;;;3.20;2.28;;;;;;;18.32;52.84;101000.84;4801302;29;20082;-72
2020/12/19 08:46:14;;;;;;;3.60;2.60;;;;;;;18.47;52.39;101001.69;4800182;29;20038;-72
2020/12/19 08:48:40;;;;;;;5.57;3.10;;;;;;;18.56;52.38;101009.50;4804870;29;20030;-71
2020/12/19 08:51:08;;;;;;;4.03;3.08;;;;;;;18.58;52.34;100999.06;4803617;29;20089;-71
2020/12/19 08:53:34;;;;;;;2.92;2.40;;;;;;;18.66;52.42;100989.47;4802204;29;20041;-72
2020/12/19 08:56:15;;;;;;;4.35;2.67;;;;;;;18.74;52.03;100989.41;4804341;29;20031;-72
2020/12/19 08:58:40;;;;;;;3.97;2.85;;;;;;;18.71;52.04;100985.06;4802438;29;20471;-72
2020/12/19 09:01:15;;;;;;;3.00;2.00;;;;;;;18.73;52.29;100990.28;4802397;29;20037;-72
2020/12/19 09:03:41;;;;;;;4.15;2.13;;;;;;;18.82;52.18;100993.78;4802486;29;20027;-72
2020/12/19 09:06:12;;;;;;;2.83;1.92;;;;;;;18.80;52.43;100990.28;4801716;29;20109;-72
2020/12/19 09:08:43;;;;;;;3.85;2.25;;;;;;;18.74;52.10;100985.06;4803479;29;20054;-72
2020/12/19 09:11:21;;;;;;;5.10;2.63;;;;;;;18.82;52.26;100990.28;4801301;29;20039;-71
2020/12/19 09:13:46;;;;;;;4.43;2.50;;;;;;;18.91;52.12;100988.47;4816583;29;20072;-73
2020/12/19 09:16:12;;;;;;;4.75;2.50;;;;;;;18.86;52.26;100995.47;4797885;29;20070;-75
2020/12/19 09:18:38;;;;;;;4.47;2.45;;;;;;;18.87;52.57;100991.97;4818579;29;20061;-77
2020/12/19 09:21:09;;;;;;;3.92;2.70;;;;;;;18.97;52.35;101002.41;4784643;29;20123;-71
2020/12/19 09:23:35;;;;;;;3.35;2.35;;;;;;;18.97;52.31;101005.91;4804119;29;20034;-71
2020/12/19 09:26:02;;;;;;;4.10;2.72;;;;;;;18.88;52.72;101001.59;4804704;29;20109;-72
2020/12/19 09:28:28;;;;;;;5.30;2.75;;;;;;;18.93;52.61;100998.97;4799486;29;20118;-72
2020/12/19 09:30:55;;;;;;;4.95;2.50;;;;;;;19.02;52.35;101004.16;4803186;29;20027;-71
2020/12/19 09:33:21;;;;;;;6.07;3.10;;;;;;;18.91;52.67;101009.44;4801125;29;20134;-72
2020/12/19 09:35:47;;;;;;;4.10;2.20;;;;;;;18.93;52.68;100996.34;4802373;29;20062;-72
2020/12/19 09:38:13;;;;;;;4.15;2.85;;;;;;;18.99;52.40;100996.28;4807796;29;20058;-72
2020/12/19 09:40:38;;;;;;;3.45;2.38;;;;;;;19.00;52.60;101002.41;4804705;29;20034;-72
2020/12/19 09:43:05;;;;;;;5.95;2.80;;;;;;;18.98;52.78;100996.28;4802291;29;20031;-72
2020/12/19 09:45:31;;;;;;;4.15;2.50;;;;;;;19.05;52.62;101003.28;4804725;29;20050;-72
2020/12/19 09:47:57;;;;;;;3.33;2.03;;;;;;;19.08;52.20;100993.66;4792346;29;20060;-71
2020/12/19 09:50:24;;;;;;;5.57;2.67;;;;;;;18.99;52.55;100998.03;4809021;29;20062;-72
2020/12/19 09:52:50;;;;;;;4.32;2.35;;;;;;;19.06;52.37;101000.66;4804556;29;20039;-72
2020/12/19 09:55:16;;;;;;;6.35;2.75;;;;;;;19.02;52.54;101004.16;4803782;29;20444;-72
2020/12/19 09:57:41;;;;;;;7.30;3.50;;;;;;;18.99;52.20;100998.03;4799675;29;20035;-72
2020/12/19 10:00:08;;;;;;;5.50;3.40;;;;;;;19.09;52.50;101003.22;4803751;29;20087;-71
2020/12/19 10:02:34;;;;;;;6.88;4.25;;;;;;;19.17;52.29;101001.47;4801111;29;20043;-72
2020/12/19 10:04:59;;;;;;;4.05;3.33;;;;;;;19.13;52.33;100989.25;4800972;29;20125;-71
2020/12/19 10:07:25;;;;;;;7.35;3.40;;;;;;;19.09;52.66;100991.88;4800537;29;20058;-71
2020/12/19 10:09:51;;;;;;;4.18;3.28;;;;;;;19.14;52.44;100985.75;4807870;29;20031;-71
2020/12/19 10:12:16;;;;;;;3.75;3.15;;;;;;;19.15;52.23;100978.75;4803675;29;20049;-72
2020/12/19 10:14:42;;;;;;;7.35;3.33;;;;;;;19.08;52.59;100971.81;4820307;29;20031;-72
2020/12/19 10:17:07;;;;;;;7.38;3.80;;;;;;;19.03;52.76;100982.31;4806482;29;20039;-72
2020/12/19 10:19:33;;;;;;;4.53;2.90;;;;;;;19.04;52.76;100970.06;4790463;29;20498;-71
2020/12/19 10:21:58;;;;;;;5.63;3.35;;;;;;;19.11;52.41;100979.63;4807720;29;20448;-71
2020/12/19 10:24:25;;;;;;;4.07;3.22;;;;;;;19.01;52.83;100986.69;4804586;29;20039;-73
2020/12/19 10:26:50;;;;;;;5.55;3.08;;;;;;;19.06;52.50;100989.28;4801523;29;20474;-71
2020/12/19 10:29:16;;;;;;;5.43;2.75;;;;;;;19.06;52.72;100971.81;4801967;29;20035;-72
2020/12/19 10:31:42;;;;;;;4.22;2.80;;;;;;;19.03;52.55;100971.81;4798338;29;20611;-70
2020/12/19 10:34:07;;;;;;;4.97;3.03;;;;;;;19.06;52.57;100966.56;4804664;29;20039;-72
2020/12/19 10:36:33;;;;;;;5.70;3.10;;;;;;;19.11;52.49;100956.03;4799887;29;20031;-72
2020/12/19 10:38:59;;;;;;;3.95;2.75;;;;;;;19.17;52.35;100954.28;4805810;29;20122;-72
2020/12/19 10:41:25;;;;;;;4.60;2.90;;;;;;;19.15;52.06;100947.28;4806886;29;20046;-72
2020/12/19 10:43:50;;;;;;;6.30;3.80;;;;;;;19.10;52.17;100943.81;4821763;29;20046;-72
2020/12/19 10:46:23;;;;;;;3.45;2.97;;;;;;;19.13;52.55;100949.03;4805357;29;20508;-72
2020/12/19 10:48:48;;;;;;;5.07;3.13;;;;;;;19.13;52.29;100947.28;4795131;29;20037;-72
2020/12/19 10:51:14;;;;;;;5.50;3.80;;;;;;;19.11;52.82;100954.28;4802086;29;20399;-72
2020/12/19 10:53:43;;;;;;;6.70;3.50;;;;;;;19.09;52.63;100955.19;4791706;29;20075;-72
2020/12/19 10:56:18;;;;;;;3.80;2.72;;;;;;;19.16;52.47;100957.78;4777179;29;20130;-72
2020/12/19 10:58:43;;;;;;;4.53;2.83;;;;;;;19.16;52.54;100970.00;4792984;29;20459;-72
2020/12/19 11:01:09;;;;;;;4.40;3.28;;;;;;;19.14;52.55;100969.13;4756603;30;20124;-73
2020/12/19 11:03:34;;;;;;;4.70;3.13;;;;;;;19.20;52.42;100974.38;4785728;30;20038;-72
2020/12/19 11:06:00;;;;;;;4.30;2.58;;;;;;;19.19;52.38;100972.63;4769843;29;20071;-71
2020/12/19 11:08:25;;;;;;;3.65;2.60;;;;;;;19.11;52.66;100980.50;4767588;30;20043;-72
2020/12/19 11:10:53;;;;;;;3.67;2.72;;;;;;;19.18;52.22;100978.75;4781977;29;20396;-72
2020/12/19 11:13:18;;;;;;;3.55;3.00;;;;;;;19.16;52.51;100973.50;4755254;30;20046;-72
2020/12/19 11:15:43;;;;;;;4.90;3.70;;;;;;;19.11;52.36;100970.03;4770831;30;20441;-72
2020/12/19 11:18:09;;;;;;;5.97;2.85;;;;;;;19.11;52.35;100956.91;4789391;29;20043;-72
2020/12/19 11:20:34;;;;;;;3.83;2.65;;;;;;;19.20;52.26;100956.88;4768872;30;20138;-72
2020/12/19 11:22:59;;;;;;;5.57;2.85;;;;;;;19.15;52.39;100960.41;4770442;29;20077;-72